sensor_id;sensor_type;location;lat;lon;timestamp;P1;durP1;ratioP1;P2;durP2;ratioP2
10226;SDS011;15634;48.766;2.272;2024-03-02T00:00:25;4.20;;;1.80;;
10226;SDS011;15634;48.766;2.272;2024-03-02T00:02:52;4.75;;;2.38;;
10226;SDS011;15634;48.766;2.272;2024-03-02T00:05:21;9.75;;;2.25;;
10226;SDS011;15634;48.766;2.272;2024-03-02T00:07:59;6.80;;;2.45;;
10226;SDS011;15634;48.766;2.272;2024-03-02T00:10:25;8.43;;;2.70;;
10226;SDS011;15634;48.766;2.272;2024-03-02T00:13:02;8.23;;;2.85;;
10226;SDS011;15634;48.766;2.272;2024-03-02T00:17:57;8.77;;;2.67;;
10226;SDS011;15634;48.766;2.272;2024-03-02T00:20:24;9.02;;;2.30;;
10226;SDS011;15634;48.766;2.272;2024-03-02T00:22:53;8.60;;;2.25;;
10226;SDS011;15634;48.766;2.272;2024-03-02T00:25:26;6.47;;;2.75;;
10226;SDS011;15634;48.766;2.272;2024-03-02T00:27:52;6.10;;;2.65;;
10226;SDS011;15634;48.766;2.272;2024-03-02T00:33:05;7.45;;;2.75;;
10226;SDS011;15634;48.766;2.272;2024-03-02T00:35:32;9.27;;;4.28;;
10226;SDS011;15634;48.766;2.272;2024-03-02T00:37:58;8.02;;;3.50;;
10226;SDS011;15634;48.766;2.272;2024-03-02T00:40:29;8.25;;;3.13;;
10226;SDS011;15634;48.766;2.272;2024-03-02T00:42:56;8.43;;;2.33;;
10226;SDS011;15634;48.766;2.272;2024-03-02T00:45:22;5.63;;;2.25;;
10226;SDS011;15634;48.766;2.272;2024-03-02T00:47:49;8.50;;;2.40;;
10226;SDS011;15634;48.766;2.272;2024-03-02T00:50:15;5.90;;;2.40;;
10226;SDS011;15634;48.766;2.272;2024-03-02T00:52:42;10.00;;;2.60;;
10226;SDS011;15634;48.766;2.272;2024-03-02T00:55:08;7.63;;;2.28;;
10226;SDS011;15634;48.766;2.272;2024-03-02T00:57:34;7.35;;;2.38;;
10226;SDS011;15634;48.766;2.272;2024-03-02T01:00:00;5.03;;;2.42;;
10226;SDS011;15634;48.766;2.272;2024-03-02T01:02:26;4.07;;;2.28;;
10226;SDS011;15634;48.766;2.272;2024-03-02T01:04:52;5.80;;;2.53;;
10226;SDS011;15634;48.766;2.272;2024-03-02T01:07:18;6.00;;;2.10;;
10226;SDS011;15634;48.766;2.272;2024-03-02T01:09:44;8.35;;;2.40;;
10226;SDS011;15634;48.766;2.272;2024-03-02T01:12:10;7.93;;;2.40;;
10226;SDS011;15634;48.766;2.272;2024-03-02T01:14:36;8.25;;;2.13;;
10226;SDS011;15634;48.766;2.272;2024-03-02T01:17:02;10.98;;;2.75;;
10226;SDS011;15634;48.766;2.272;2024-03-02T01:19:29;6.53;;;2.55;;
10226;SDS011;15634;48.766;2.272;2024-03-02T01:21:55;10.52;;;2.85;;
10226;SDS011;15634;48.766;2.272;2024-03-02T01:24:21;7.53;;;2.80;;
10226;SDS011;15634;48.766;2.272;2024-03-02T01:26:47;9.27;;;2.92;;
10226;SDS011;15634;48.766;2.272;2024-03-02T01:29:13;16.70;;;2.75;;
10226;SDS011;15634;48.766;2.272;2024-03-02T01:31:39;7.18;;;2.58;;
10226;SDS011;15634;48.766;2.272;2024-03-02T01:34:07;8.00;;;2.63;;
10226;SDS011;15634;48.766;2.272;2024-03-02T01:36:33;9.52;;;2.30;;
10226;SDS011;15634;48.766;2.272;2024-03-02T01:38:59;5.57;;;2.20;;
10226;SDS011;15634;48.766;2.272;2024-03-02T01:41:25;7.63;;;2.30;;
10226;SDS011;15634;48.766;2.272;2024-03-02T01:43:51;9.02;;;2.53;;
10226;SDS011;15634;48.766;2.272;2024-03-02T01:46:17;7.28;;;2.67;;
10226;SDS011;15634;48.766;2.272;2024-03-02T01:48:43;8.70;;;2.35;;
10226;SDS011;15634;48.766;2.272;2024-03-02T01:51:08;6.88;;;2.50;;
10226;SDS011;15634;48.766;2.272;2024-03-02T01:53:35;7.43;;;2.50;;
10226;SDS011;15634;48.766;2.272;2024-03-02T01:56:01;8.82;;;2.40;;
10226;SDS011;15634;48.766;2.272;2024-03-02T01:58:27;4.70;;;2.40;;
10226;SDS011;15634;48.766;2.272;2024-03-02T02:00:53;3.95;;;2.30;;
10226;SDS011;15634;48.766;2.272;2024-03-02T02:03:19;9.30;;;2.67;;
10226;SDS011;15634;48.766;2.272;2024-03-02T02:05:45;8.93;;;2.53;;
10226;SDS011;15634;48.766;2.272;2024-03-02T02:08:12;7.70;;;3.17;;
10226;SDS011;15634;48.766;2.272;2024-03-02T02:10:38;8.30;;;2.67;;
10226;SDS011;15634;48.766;2.272;2024-03-02T02:13:05;7.38;;;2.58;;
10226;SDS011;15634;48.766;2.272;2024-03-02T02:15:32;7.53;;;2.28;;
10226;SDS011;15634;48.766;2.272;2024-03-02T02:18:00;10.85;;;2.95;;
10226;SDS011;15634;48.766;2.272;2024-03-02T02:20:26;10.40;;;2.85;;
10226;SDS011;15634;48.766;2.272;2024-03-02T02:25:25;5.00;;;2.78;;
10226;SDS011;15634;48.766;2.272;2024-03-02T02:27:51;7.60;;;3.20;;
10226;SDS011;15634;48.766;2.272;2024-03-02T02:30:21;7.55;;;2.15;;
10226;SDS011;15634;48.766;2.272;2024-03-02T02:32:47;9.20;;;2.60;;
10226;SDS011;15634;48.766;2.272;2024-03-02T02:35:13;8.55;;;2.30;;
10226;SDS011;15634;48.766;2.272;2024-03-02T02:37:38;9.13;;;2.58;;
10226;SDS011;15634;48.766;2.272;2024-03-02T02:40:05;8.65;;;2.90;;
10226;SDS011;15634;48.766;2.272;2024-03-02T02:42:31;9.63;;;2.38;;
10226;SDS011;15634;48.766;2.272;2024-03-02T02:44:57;9.25;;;2.53;;
10226;SDS011;15634;48.766;2.272;2024-03-02T02:47:22;13.23;;;2.65;;
10226;SDS011;15634;48.766;2.272;2024-03-02T02:49:48;7.97;;;2.20;;
10226;SDS011;15634;48.766;2.272;2024-03-02T02:52:14;9.43;;;2.50;;
10226;SDS011;15634;48.766;2.272;2024-03-02T02:54:40;11.88;;;2.78;;
10226;SDS011;15634;48.766;2.272;2024-03-02T02:57:06;8.65;;;2.67;;
10226;SDS011;15634;48.766;2.272;2024-03-02T02:59:32;5.13;;;2.08;;
10226;SDS011;15634;48.766;2.272;2024-03-02T03:01:58;9.13;;;2.63;;
10226;SDS011;15634;48.766;2.272;2024-03-02T03:04:24;13.75;;;2.53;;
10226;SDS011;15634;48.766;2.272;2024-03-02T03:06:50;10.70;;;2.97;;
10226;SDS011;15634;48.766;2.272;2024-03-02T03:09:16;9.85;;;2.63;;
10226;SDS011;15634;48.766;2.272;2024-03-02T03:11:41;8.02;;;2.22;;
10226;SDS011;15634;48.766;2.272;2024-03-02T03:14:07;8.05;;;2.60;;
10226;SDS011;15634;48.766;2.272;2024-03-02T03:16:33;12.30;;;2.63;;
10226;SDS011;15634;48.766;2.272;2024-03-02T03:18:59;10.65;;;3.17;;
10226;SDS011;15634;48.766;2.272;2024-03-02T03:21:25;10.07;;;2.53;;
10226;SDS011;15634;48.766;2.272;2024-03-02T03:23:50;8.00;;;2.50;;
10226;SDS011;15634;48.766;2.272;2024-03-02T03:26:16;9.30;;;2.70;;
10226;SDS011;15634;48.766;2.272;2024-03-02T03:28:42;7.45;;;2.80;;
10226;SDS011;15634;48.766;2.272;2024-03-02T03:31:08;10.13;;;2.67;;
10226;SDS011;15634;48.766;2.272;2024-03-02T03:33:35;8.70;;;2.70;;
10226;SDS011;15634;48.766;2.272;2024-03-02T03:36:01;6.68;;;2.53;;
10226;SDS011;15634;48.766;2.272;2024-03-02T03:38:28;8.48;;;2.10;;
10226;SDS011;15634;48.766;2.272;2024-03-02T03:40:54;18.13;;;2.88;;
10226;SDS011;15634;48.766;2.272;2024-03-02T03:43:20;8.93;;;2.30;;
10226;SDS011;15634;48.766;2.272;2024-03-02T03:45:46;10.48;;;2.20;;
10226;SDS011;15634;48.766;2.272;2024-03-02T03:48:12;9.40;;;3.05;;
10226;SDS011;15634;48.766;2.272;2024-03-02T03:50:38;8.70;;;2.20;;
10226;SDS011;15634;48.766;2.272;2024-03-02T03:53:04;12.85;;;2.65;;
10226;SDS011;15634;48.766;2.272;2024-03-02T03:55:30;4.43;;;2.47;;
10226;SDS011;15634;48.766;2.272;2024-03-02T03:57:55;11.07;;;2.50;;
10226;SDS011;15634;48.766;2.272;2024-03-02T04:00:21;7.57;;;2.08;;
10226;SDS011;15634;48.766;2.272;2024-03-02T04:02:47;7.45;;;2.28;;
10226;SDS011;15634;48.766;2.272;2024-03-02T04:05:13;10.45;;;2.30;;
10226;SDS011;15634;48.766;2.272;2024-03-02T04:07:39;7.80;;;2.30;;
10226;SDS011;15634;48.766;2.272;2024-03-02T04:10:09;8.90;;;2.17;;
10226;SDS011;15634;48.766;2.272;2024-03-02T04:12:35;8.05;;;2.40;;
10226;SDS011;15634;48.766;2.272;2024-03-02T04:15:02;8.10;;;2.72;;
10226;SDS011;15634;48.766;2.272;2024-03-02T04:17:31;11.48;;;2.88;;
10226;SDS011;15634;48.766;2.272;2024-03-02T04:19:57;7.93;;;2.50;;
10226;SDS011;15634;48.766;2.272;2024-03-02T04:22:23;9.60;;;2.13;;
10226;SDS011;15634;48.766;2.272;2024-03-02T04:24:49;8.15;;;2.42;;
10226;SDS011;15634;48.766;2.272;2024-03-02T04:27:15;10.77;;;2.67;;
10226;SDS011;15634;48.766;2.272;2024-03-02T04:29:41;6.68;;;2.53;;
10226;SDS011;15634;48.766;2.272;2024-03-02T04:32:07;14.60;;;2.50;;
10226;SDS011;15634;48.766;2.272;2024-03-02T04:34:33;9.88;;;2.63;;
10226;SDS011;15634;48.766;2.272;2024-03-02T04:36:59;7.75;;;2.30;;
10226;SDS011;15634;48.766;2.272;2024-03-02T04:39:25;9.07;;;1.98;;
10226;SDS011;15634;48.766;2.272;2024-03-02T04:41:51;7.55;;;2.22;;
10226;SDS011;15634;48.766;2.272;2024-03-02T04:44:17;6.35;;;2.22;;
10226;SDS011;15634;48.766;2.272;2024-03-02T04:46:43;7.82;;;2.60;;
10226;SDS011;15634;48.766;2.272;2024-03-02T04:49:09;8.45;;;2.67;;
10226;SDS011;15634;48.766;2.272;2024-03-02T04:51:35;7.68;;;2.40;;
10226;SDS011;15634;48.766;2.272;2024-03-02T04:54:01;6.90;;;2.25;;
10226;SDS011;15634;48.766;2.272;2024-03-02T04:56:27;6.95;;;2.20;;
10226;SDS011;15634;48.766;2.272;2024-03-02T04:59:15;13.25;;;2.47;;
10226;SDS011;15634;48.766;2.272;2024-03-02T05:01:42;8.25;;;2.00;;
10226;SDS011;15634;48.766;2.272;2024-03-02T05:04:08;13.80;;;2.83;;
10226;SDS011;15634;48.766;2.272;2024-03-02T05:06:36;8.35;;;2.33;;
10226;SDS011;15634;48.766;2.272;2024-03-02T05:09:03;11.75;;;2.80;;
10226;SDS011;15634;48.766;2.272;2024-03-02T05:11:29;12.23;;;2.60;;
10226;SDS011;15634;48.766;2.272;2024-03-02T05:14:21;7.80;;;2.53;;
10226;SDS011;15634;48.766;2.272;2024-03-02T05:16:47;8.52;;;2.17;;
10226;SDS011;15634;48.766;2.272;2024-03-02T05:19:13;7.82;;;2.40;;
10226;SDS011;15634;48.766;2.272;2024-03-02T05:21:38;5.70;;;1.98;;
10226;SDS011;15634;48.766;2.272;2024-03-02T05:24:04;7.32;;;2.28;;
10226;SDS011;15634;48.766;2.272;2024-03-02T05:26:30;11.15;;;2.72;;
10226;SDS011;15634;48.766;2.272;2024-03-02T05:28:56;9.93;;;2.85;;
10226;SDS011;15634;48.766;2.272;2024-03-02T05:31:22;9.15;;;2.40;;
10226;SDS011;15634;48.766;2.272;2024-03-02T05:33:48;10.27;;;2.40;;
10226;SDS011;15634;48.766;2.272;2024-03-02T05:36:14;6.57;;;2.30;;
10226;SDS011;15634;48.766;2.272;2024-03-02T05:38:40;7.78;;;2.00;;
10226;SDS011;15634;48.766;2.272;2024-03-02T05:41:06;7.68;;;2.03;;
10226;SDS011;15634;48.766;2.272;2024-03-02T05:43:32;10.90;;;2.55;;
10226;SDS011;15634;48.766;2.272;2024-03-02T05:45:58;8.25;;;2.65;;
10226;SDS011;15634;48.766;2.272;2024-03-02T05:48:23;8.07;;;2.63;;
10226;SDS011;15634;48.766;2.272;2024-03-02T05:50:49;10.25;;;2.72;;
10226;SDS011;15634;48.766;2.272;2024-03-02T05:53:15;7.97;;;2.60;;
10226;SDS011;15634;48.766;2.272;2024-03-02T05:55:41;9.55;;;2.70;;
10226;SDS011;15634;48.766;2.272;2024-03-02T05:58:06;10.45;;;2.83;;
10226;SDS011;15634;48.766;2.272;2024-03-02T06:00:48;6.60;;;2.70;;
10226;SDS011;15634;48.766;2.272;2024-03-02T06:03:13;16.83;;;3.08;;
10226;SDS011;15634;48.766;2.272;2024-03-02T06:05:39;12.68;;;2.95;;
10226;SDS011;15634;48.766;2.272;2024-03-02T06:08:06;11.85;;;3.10;;
10226;SDS011;15634;48.766;2.272;2024-03-02T06:10:32;8.00;;;2.80;;
10226;SDS011;15634;48.766;2.272;2024-03-02T06:12:58;13.95;;;3.42;;
10226;SDS011;15634;48.766;2.272;2024-03-02T06:15:24;12.98;;;3.00;;
10226;SDS011;15634;48.766;2.272;2024-03-02T06:17:49;7.30;;;2.88;;
10226;SDS011;15634;48.766;2.272;2024-03-02T06:20:15;8.73;;;2.90;;
10226;SDS011;15634;48.766;2.272;2024-03-02T06:22:41;8.18;;;2.78;;
10226;SDS011;15634;48.766;2.272;2024-03-02T06:25:07;14.63;;;3.13;;
10226;SDS011;15634;48.766;2.272;2024-03-02T06:27:33;7.80;;;2.50;;
10226;SDS011;15634;48.766;2.272;2024-03-02T06:29:59;8.32;;;2.65;;
10226;SDS011;15634;48.766;2.272;2024-03-02T06:32:25;8.50;;;2.70;;
10226;SDS011;15634;48.766;2.272;2024-03-02T06:34:51;11.60;;;2.78;;
10226;SDS011;15634;48.766;2.272;2024-03-02T06:37:17;11.45;;;2.85;;
10226;SDS011;15634;48.766;2.272;2024-03-02T06:39:43;8.35;;;2.47;;
10226;SDS011;15634;48.766;2.272;2024-03-02T06:42:08;15.50;;;3.15;;
10226;SDS011;15634;48.766;2.272;2024-03-02T06:44:34;8.77;;;2.65;;
10226;SDS011;15634;48.766;2.272;2024-03-02T06:47:00;8.70;;;2.80;;
10226;SDS011;15634;48.766;2.272;2024-03-02T06:49:26;9.70;;;3.08;;
10226;SDS011;15634;48.766;2.272;2024-03-02T06:51:52;7.38;;;2.78;;
10226;SDS011;15634;48.766;2.272;2024-03-02T06:54:18;11.32;;;2.72;;
10226;SDS011;15634;48.766;2.272;2024-03-02T06:56:44;11.48;;;2.70;;
10226;SDS011;15634;48.766;2.272;2024-03-02T06:59:10;12.32;;;2.92;;
10226;SDS011;15634;48.766;2.272;2024-03-02T07:01:36;13.50;;;3.10;;
10226;SDS011;15634;48.766;2.272;2024-03-02T07:04:02;10.10;;;2.65;;
10226;SDS011;15634;48.766;2.272;2024-03-02T07:06:30;10.10;;;3.22;;
10226;SDS011;15634;48.766;2.272;2024-03-02T07:08:56;10.63;;;3.15;;
10226;SDS011;15634;48.766;2.272;2024-03-02T07:11:22;10.90;;;2.60;;
10226;SDS011;15634;48.766;2.272;2024-03-02T07:13:48;7.03;;;2.15;;
10226;SDS011;15634;48.766;2.272;2024-03-02T07:16:14;7.60;;;2.70;;
10226;SDS011;15634;48.766;2.272;2024-03-02T07:18:55;9.48;;;2.67;;
10226;SDS011;15634;48.766;2.272;2024-03-02T07:21:21;8.60;;;2.38;;
10226;SDS011;15634;48.766;2.272;2024-03-02T07:23:48;10.30;;;2.33;;
10226;SDS011;15634;48.766;2.272;2024-03-02T07:26:14;12.88;;;3.50;;
10226;SDS011;15634;48.766;2.272;2024-03-02T07:28:41;10.55;;;2.67;;
10226;SDS011;15634;48.766;2.272;2024-03-02T07:31:07;6.78;;;2.97;;
10226;SDS011;15634;48.766;2.272;2024-03-02T07:33:34;9.00;;;2.70;;
10226;SDS011;15634;48.766;2.272;2024-03-02T07:36:01;8.75;;;2.55;;
10226;SDS011;15634;48.766;2.272;2024-03-02T07:38:30;10.15;;;2.65;;
10226;SDS011;15634;48.766;2.272;2024-03-02T07:40:58;10.32;;;2.38;;
10226;SDS011;15634;48.766;2.272;2024-03-02T07:43:25;9.27;;;2.65;;
10226;SDS011;15634;48.766;2.272;2024-03-02T07:45:51;10.98;;;2.40;;
10226;SDS011;15634;48.766;2.272;2024-03-02T07:48:17;8.48;;;2.83;;
10226;SDS011;15634;48.766;2.272;2024-03-02T07:50:43;6.45;;;2.40;;
10226;SDS011;15634;48.766;2.272;2024-03-02T07:53:09;4.82;;;2.10;;
10226;SDS011;15634;48.766;2.272;2024-03-02T07:55:36;7.35;;;2.30;;
10226;SDS011;15634;48.766;2.272;2024-03-02T07:58:02;12.90;;;3.03;;
10226;SDS011;15634;48.766;2.272;2024-03-02T08:00:28;6.70;;;2.55;;
10226;SDS011;15634;48.766;2.272;2024-03-02T08:02:54;8.02;;;2.67;;
10226;SDS011;15634;48.766;2.272;2024-03-02T08:05:21;7.97;;;2.58;;
10226;SDS011;15634;48.766;2.272;2024-03-02T08:07:47;8.00;;;2.70;;
10226;SDS011;15634;48.766;2.272;2024-03-02T08:10:13;9.82;;;2.58;;
10226;SDS011;15634;48.766;2.272;2024-03-02T08:12:39;10.32;;;2.95;;
10226;SDS011;15634;48.766;2.272;2024-03-02T08:15:05;7.60;;;2.47;;
10226;SDS011;15634;48.766;2.272;2024-03-02T08:17:31;5.05;;;2.28;;
10226;SDS011;15634;48.766;2.272;2024-03-02T08:19:57;5.82;;;2.30;;
10226;SDS011;15634;48.766;2.272;2024-03-02T08:22:26;6.35;;;2.00;;
10226;SDS011;15634;48.766;2.272;2024-03-02T08:24:51;6.40;;;2.45;;
10226;SDS011;15634;48.766;2.272;2024-03-02T08:27:19;8.57;;;3.08;;
10226;SDS011;15634;48.766;2.272;2024-03-02T08:29:45;8.10;;;2.42;;
10226;SDS011;15634;48.766;2.272;2024-03-02T08:32:11;7.38;;;2.75;;
10226;SDS011;15634;48.766;2.272;2024-03-02T08:34:36;7.40;;;2.55;;
10226;SDS011;15634;48.766;2.272;2024-03-02T08:37:02;9.20;;;2.50;;
10226;SDS011;15634;48.766;2.272;2024-03-02T08:39:28;9.65;;;3.17;;
10226;SDS011;15634;48.766;2.272;2024-03-02T08:41:54;11.73;;;2.92;;
10226;SDS011;15634;48.766;2.272;2024-03-02T08:44:20;7.40;;;2.38;;
10226;SDS011;15634;48.766;2.272;2024-03-02T08:46:47;10.32;;;2.85;;
10226;SDS011;15634;48.766;2.272;2024-03-02T08:49:13;7.70;;;2.20;;
10226;SDS011;15634;48.766;2.272;2024-03-02T08:51:39;7.43;;;2.97;;
10226;SDS011;15634;48.766;2.272;2024-03-02T08:54:05;10.35;;;2.67;;
10226;SDS011;15634;48.766;2.272;2024-03-02T08:56:30;6.80;;;2.80;;
10226;SDS011;15634;48.766;2.272;2024-03-02T08:58:57;12.15;;;2.88;;
10226;SDS011;15634;48.766;2.272;2024-03-02T09:01:22;9.88;;;2.60;;
10226;SDS011;15634;48.766;2.272;2024-03-02T09:03:48;7.78;;;2.38;;
10226;SDS011;15634;48.766;2.272;2024-03-02T09:06:14;9.23;;;2.75;;
10226;SDS011;15634;48.766;2.272;2024-03-02T09:08:42;10.57;;;2.40;;
10226;SDS011;15634;48.766;2.272;2024-03-02T09:11:08;8.55;;;2.30;;
10226;SDS011;15634;48.766;2.272;2024-03-02T09:13:35;9.68;;;2.90;;
10226;SDS011;15634;48.766;2.272;2024-03-02T09:16:02;8.23;;;2.53;;
10226;SDS011;15634;48.766;2.272;2024-03-02T09:18:29;8.18;;;2.50;;
10226;SDS011;15634;48.766;2.272;2024-03-02T09:20:55;7.68;;;2.60;;
10226;SDS011;15634;48.766;2.272;2024-03-02T09:23:21;10.32;;;2.47;;
10226;SDS011;15634;48.766;2.272;2024-03-02T09:25:47;8.52;;;2.08;;
10226;SDS011;15634;48.766;2.272;2024-03-02T09:28:17;9.25;;;2.60;;
10226;SDS011;15634;48.766;2.272;2024-03-02T09:30:43;10.38;;;2.70;;
10226;SDS011;15634;48.766;2.272;2024-03-02T09:33:09;5.13;;;2.13;;
10226;SDS011;15634;48.766;2.272;2024-03-02T09:35:35;6.85;;;2.88;;
10226;SDS011;15634;48.766;2.272;2024-03-02T09:38:02;6.85;;;2.90;;
10226;SDS011;15634;48.766;2.272;2024-03-02T09:40:28;6.00;;;2.67;;
10226;SDS011;15634;48.766;2.272;2024-03-02T09:42:54;7.18;;;2.28;;
10226;SDS011;15634;48.766;2.272;2024-03-02T09:45:22;9.82;;;2.33;;
10226;SDS011;15634;48.766;2.272;2024-03-02T09:47:48;7.00;;;2.50;;
10226;SDS011;15634;48.766;2.272;2024-03-02T09:50:14;4.70;;;2.60;;
10226;SDS011;15634;48.766;2.272;2024-03-02T09:52:42;5.80;;;2.17;;
10226;SDS011;15634;48.766;2.272;2024-03-02T09:55:08;8.02;;;2.85;;
10226;SDS011;15634;48.766;2.272;2024-03-02T09:57:34;7.32;;;3.03;;
10226;SDS011;15634;48.766;2.272;2024-03-02T10:00:00;8.35;;;3.17;;
10226;SDS011;15634;48.766;2.272;2024-03-02T10:02:27;7.95;;;2.75;;
10226;SDS011;15634;48.766;2.272;2024-03-02T10:04:53;6.55;;;2.90;;
10226;SDS011;15634;48.766;2.272;2024-03-02T10:07:19;7.40;;;3.10;;
10226;SDS011;15634;48.766;2.272;2024-03-02T10:09:46;11.20;;;5.57;;
10226;SDS011;15634;48.766;2.272;2024-03-02T10:12:12;10.50;;;5.63;;
10226;SDS011;15634;48.766;2.272;2024-03-02T10:14:39;8.00;;;4.03;;
10226;SDS011;15634;48.766;2.272;2024-03-02T10:17:06;7.63;;;3.50;;
10226;SDS011;15634;48.766;2.272;2024-03-02T10:19:32;8.07;;;3.17;;
10226;SDS011;15634;48.766;2.272;2024-03-02T10:22:00;8.88;;;3.53;;
10226;SDS011;15634;48.766;2.272;2024-03-02T10:24:26;9.57;;;3.08;;
10226;SDS011;15634;48.766;2.272;2024-03-02T10:26:53;10.27;;;3.45;;
10226;SDS011;15634;48.766;2.272;2024-03-02T10:29:21;10.60;;;3.13;;
10226;SDS011;15634;48.766;2.272;2024-03-02T10:31:47;9.20;;;2.72;;
10226;SDS011;15634;48.766;2.272;2024-03-02T10:34:14;7.53;;;3.10;;
10226;SDS011;15634;48.766;2.272;2024-03-02T10:36:43;4.75;;;2.50;;
10226;SDS011;15634;48.766;2.272;2024-03-02T10:39:12;9.30;;;3.13;;
10226;SDS011;15634;48.766;2.272;2024-03-02T10:41:39;9.23;;;4.15;;
10226;SDS011;15634;48.766;2.272;2024-03-02T10:44:08;9.57;;;2.88;;
10226;SDS011;15634;48.766;2.272;2024-03-02T10:46:35;6.90;;;2.70;;
10226;SDS011;15634;48.766;2.272;2024-03-02T10:49:03;4.63;;;2.38;;
10226;SDS011;15634;48.766;2.272;2024-03-02T10:51:29;5.57;;;2.45;;
10226;SDS011;15634;48.766;2.272;2024-03-02T10:54:01;7.75;;;2.25;;
10226;SDS011;15634;48.766;2.272;2024-03-02T10:56:28;4.25;;;2.33;;
10226;SDS011;15634;48.766;2.272;2024-03-02T10:58:55;3.85;;;2.25;;
10226;SDS011;15634;48.766;2.272;2024-03-02T11:01:24;3.95;;;2.00;;
10226;SDS011;15634;48.766;2.272;2024-03-02T11:03:50;4.13;;;1.70;;
10226;SDS011;15634;48.766;2.272;2024-03-02T11:06:16;4.38;;;1.90;;
10226;SDS011;15634;48.766;2.272;2024-03-02T11:08:43;3.55;;;2.08;;
10226;SDS011;15634;48.766;2.272;2024-03-02T11:11:14;4.45;;;2.10;;
10226;SDS011;15634;48.766;2.272;2024-03-02T11:13:42;6.15;;;1.98;;
10226;SDS011;15634;48.766;2.272;2024-03-02T11:18:49;2.60;;;1.75;;
10226;SDS011;15634;48.766;2.272;2024-03-02T11:21:15;4.10;;;2.08;;
10226;SDS011;15634;48.766;2.272;2024-03-02T11:23:41;2.15;;;1.20;;
10226;SDS011;15634;48.766;2.272;2024-03-02T11:28:44;1.65;;;1.30;;
10226;SDS011;15634;48.766;2.272;2024-03-02T11:31:10;1.70;;;1.10;;
10226;SDS011;15634;48.766;2.272;2024-03-02T11:33:36;1.27;;;1.08;;
10226;SDS011;15634;48.766;2.272;2024-03-02T11:36:02;1.88;;;1.10;;
10226;SDS011;15634;48.766;2.272;2024-03-02T11:38:32;3.00;;;1.35;;
10226;SDS011;15634;48.766;2.272;2024-03-02T11:41:02;2.50;;;1.67;;
10226;SDS011;15634;48.766;2.272;2024-03-02T11:43:28;4.03;;;1.50;;
10226;SDS011;15634;48.766;2.272;2024-03-02T11:45:58;2.50;;;1.35;;
10226;SDS011;15634;48.766;2.272;2024-03-02T11:48:25;2.65;;;1.25;;
10226;SDS011;15634;48.766;2.272;2024-03-02T11:50:54;1.33;;;1.20;;
10226;SDS011;15634;48.766;2.272;2024-03-02T11:53:23;8.68;;;4.35;;
10226;SDS011;15634;48.766;2.272;2024-03-02T11:55:52;4.25;;;2.20;;
10226;SDS011;15634;48.766;2.272;2024-03-02T11:58:20;1.38;;;1.05;;
10226;SDS011;15634;48.766;2.272;2024-03-02T12:00:52;1.20;;;1.10;;
10226;SDS011;15634;48.766;2.272;2024-03-02T12:03:20;2.35;;;1.23;;
10226;SDS011;15634;48.766;2.272;2024-03-02T12:05:48;2.58;;;1.10;;
10226;SDS011;15634;48.766;2.272;2024-03-02T12:08:14;1.30;;;0.85;;
10226;SDS011;15634;48.766;2.272;2024-03-02T12:10:40;1.50;;;1.10;;
10226;SDS011;15634;48.766;2.272;2024-03-02T12:13:06;1.80;;;0.82;;
10226;SDS011;15634;48.766;2.272;2024-03-02T12:15:35;2.13;;;1.15;;
10226;SDS011;15634;48.766;2.272;2024-03-02T12:18:02;1.27;;;1.10;;
10226;SDS011;15634;48.766;2.272;2024-03-02T12:20:29;2.67;;;1.35;;
10226;SDS011;15634;48.766;2.272;2024-03-02T12:22:56;2.80;;;1.33;;
10226;SDS011;15634;48.766;2.272;2024-03-02T12:25:23;2.88;;;1.42;;
10226;SDS011;15634;48.766;2.272;2024-03-02T12:27:50;3.17;;;1.80;;
10226;SDS011;15634;48.766;2.272;2024-03-02T12:30:18;3.90;;;2.00;;
10226;SDS011;15634;48.766;2.272;2024-03-02T12:32:45;2.70;;;1.48;;
10226;SDS011;15634;48.766;2.272;2024-03-02T12:35:11;1.40;;;1.30;;
10226;SDS011;15634;48.766;2.272;2024-03-02T12:37:50;1.70;;;1.40;;
10226;SDS011;15634;48.766;2.272;2024-03-02T12:40:17;1.80;;;1.27;;
10226;SDS011;15634;48.766;2.272;2024-03-02T12:42:44;1.70;;;1.40;;
10226;SDS011;15634;48.766;2.272;2024-03-02T12:45:11;3.70;;;1.35;;
10226;SDS011;15634;48.766;2.272;2024-03-02T12:47:37;1.50;;;1.17;;
10226;SDS011;15634;48.766;2.272;2024-03-02T12:50:05;1.77;;;1.13;;
10226;SDS011;15634;48.766;2.272;2024-03-02T12:52:32;1.63;;;1.10;;
10226;SDS011;15634;48.766;2.272;2024-03-02T12:54:59;3.63;;;2.00;;
10226;SDS011;15634;48.766;2.272;2024-03-02T12:57:26;1.58;;;1.45;;
10226;SDS011;15634;48.766;2.272;2024-03-02T12:59:52;2.70;;;1.60;;
10226;SDS011;15634;48.766;2.272;2024-03-02T13:02:18;2.28;;;1.60;;
10226;SDS011;15634;48.766;2.272;2024-03-02T13:04:44;3.75;;;1.80;;
10226;SDS011;15634;48.766;2.272;2024-03-02T13:07:19;2.85;;;1.45;;
10226;SDS011;15634;48.766;2.272;2024-03-02T13:09:45;2.25;;;1.25;;
10226;SDS011;15634;48.766;2.272;2024-03-02T13:12:11;1.65;;;1.30;;
10226;SDS011;15634;48.766;2.272;2024-03-02T13:14:37;3.78;;;1.60;;
10226;SDS011;15634;48.766;2.272;2024-03-02T13:17:03;2.63;;;1.52;;
10226;SDS011;15634;48.766;2.272;2024-03-02T13:19:30;2.42;;;1.52;;
10226;SDS011;15634;48.766;2.272;2024-03-02T13:21:57;1.85;;;1.40;;
10226;SDS011;15634;48.766;2.272;2024-03-02T13:24:23;1.38;;;1.27;;
10226;SDS011;15634;48.766;2.272;2024-03-02T13:26:54;2.47;;;1.83;;
10226;SDS011;15634;48.766;2.272;2024-03-02T13:29:22;3.97;;;2.15;;
10226;SDS011;15634;48.766;2.272;2024-03-02T13:31:48;8.95;;;5.28;;
10226;SDS011;15634;48.766;2.272;2024-03-02T13:34:14;11.32;;;6.05;;
10226;SDS011;15634;48.766;2.272;2024-03-02T13:36:40;5.90;;;3.42;;
10226;SDS011;15634;48.766;2.272;2024-03-02T13:39:06;5.15;;;2.08;;
10226;SDS011;15634;48.766;2.272;2024-03-02T13:41:35;1.90;;;1.40;;
10226;SDS011;15634;48.766;2.272;2024-03-02T13:44:01;3.83;;;1.85;;
10226;SDS011;15634;48.766;2.272;2024-03-02T13:46:27;2.65;;;2.00;;
10226;SDS011;15634;48.766;2.272;2024-03-02T13:48:54;4.38;;;2.03;;
10226;SDS011;15634;48.766;2.272;2024-03-02T13:51:20;3.97;;;2.30;;
10226;SDS011;15634;48.766;2.272;2024-03-02T13:53:56;3.30;;;2.10;;
10226;SDS011;15634;48.766;2.272;2024-03-02T13:56:22;2.25;;;1.95;;
10226;SDS011;15634;48.766;2.272;2024-03-02T13:58:48;6.82;;;2.50;;
10226;SDS011;15634;48.766;2.272;2024-03-02T14:01:14;4.53;;;2.70;;
10226;SDS011;15634;48.766;2.272;2024-03-02T14:03:40;6.80;;;2.83;;
10226;SDS011;15634;48.766;2.272;2024-03-02T14:06:06;5.00;;;2.55;;
10226;SDS011;15634;48.766;2.272;2024-03-02T14:08:32;4.80;;;2.70;;
10226;SDS011;15634;48.766;2.272;2024-03-02T14:11:00;5.25;;;2.45;;
10226;SDS011;15634;48.766;2.272;2024-03-02T14:13:27;4.90;;;2.78;;
10226;SDS011;15634;48.766;2.272;2024-03-02T14:15:54;4.82;;;2.60;;
10226;SDS011;15634;48.766;2.272;2024-03-02T14:18:20;4.05;;;2.60;;
10226;SDS011;15634;48.766;2.272;2024-03-02T14:20:49;4.97;;;2.95;;
10226;SDS011;15634;48.766;2.272;2024-03-02T14:23:17;4.43;;;2.90;;
10226;SDS011;15634;48.766;2.272;2024-03-02T14:25:44;4.35;;;2.95;;
10226;SDS011;15634;48.766;2.272;2024-03-02T14:28:10;5.07;;;2.95;;
10226;SDS011;15634;48.766;2.272;2024-03-02T14:30:37;3.78;;;2.10;;
10226;SDS011;15634;48.766;2.272;2024-03-02T14:35:31;2.20;;;1.60;;
10226;SDS011;15634;48.766;2.272;2024-03-02T14:37:58;15.30;;;7.82;;
10226;SDS011;15634;48.766;2.272;2024-03-02T14:40:27;8.15;;;4.00;;
10226;SDS011;15634;48.766;2.272;2024-03-02T14:42:54;25.10;;;13.75;;
10226;SDS011;15634;48.766;2.272;2024-03-02T14:45:20;15.45;;;6.93;;
10226;SDS011;15634;48.766;2.272;2024-03-02T14:47:46;5.03;;;2.50;;
10226;SDS011;15634;48.766;2.272;2024-03-02T14:50:12;2.80;;;1.20;;
10226;SDS011;15634;48.766;2.272;2024-03-02T14:52:42;2.83;;;1.67;;
10226;SDS011;15634;48.766;2.272;2024-03-02T14:55:08;1.90;;;1.30;;
10226;SDS011;15634;48.766;2.272;2024-03-02T14:57:34;1.95;;;1.38;;